Camellia — VRCP9 — position and weather

sailwx.info

Track history (hours):
 
Tides and Currents Weather Stations Pressure Air Temp Water Temp Dewpoint Dewpoint Depression Visibility Wind Speed Wind Dir Waves Ship Positions

Camellia

Last reported at 2014-Sep-19 11:31 UTC. Time now 2014-Sep-19 15:52 UTC.
Position N 40°45' E 029°28'.

Length 222 m; draft 9.8 m.

Type: Ship (hazmat cat C). MMSI: 477791900.

Date/timePositionNaut miles runAvg speedWind from/ knotsBaromVisibWave heightAir tempDewpointWater temp
2014-Sep-19 11:31N 40°45' E 029°28'1010.5
2014-Sep-19 10:34N 40°44' E 029°15'2 1.9
2014-Sep-19 09:30N 40°45' E 029°13'0 0.1
2014-Sep-19 08:30N 40°45' E 029°13'0 0.3
2014-Sep-19 07:24N 40°45' E 029°12'0 0.4
2014-Sep-19 06:30N 40°45' E 029°12'1 1.3
2014-Sep-19 05:33N 40°46' E 029°12'1111.4
2014-Sep-19 04:33N 40°43' E 028°57'1716.6
2014-Sep-19 03:33N 40°29' E 028°45'14 0.5
2014-Sep-18 01:24N 40°28' E 029°04'0 0.2
2014-Sep-18 00:04N 40°28' E 029°04'2412.5
2014-Sep-17 22:08N 40°41' E 028°37'29416.7
2014-Sep-17 04:33N 37°10' E 024°13'2020.3
2014-Sep-17 03:34N 36°51' E 024°04'2120.6
2014-Sep-17 02:33N 36°36' E 023°47'45019.3
2014-Sep-16 03:18N 35°49' E 014°33'0 0.0
2014-Sep-16 02:29N 35°49' E 014°33'0 0.0
2014-Sep-16 00:22N 35°49' E 014°33'0 0.0
2014-Sep-15 21:32N 35°49' E 014°33'0 0.0
2014-Sep-15 20:12N 35°49' E 014°33'0 0.0
2014-Sep-15 19:32N 35°49' E 014°33'0 0.0
2014-Sep-15 18:05N 35°49' E 014°33'0 0.0
2014-Sep-15 17:06N 35°49' E 014°33'0 0.0
2014-Sep-15 16:33N 35°49' E 014°33'0 0.0
2014-Sep-15 15:33N 35°49' E 014°33'0 0.0
2014-Sep-15 14:33N 35°49' E 014°33'0 0.0
2014-Sep-15 13:33N 35°49' E 014°33'0 0.0
2014-Sep-15 12:33N 35°49' E 014°33'0 0.0
2014-Sep-15 11:33N 35°49' E 014°33'0 0.0
2014-Sep-15 10:33N 35°49' E 014°33'0 0.0
2014-Sep-15 09:33N 35°49' E 014°33'0 0.0
2014-Sep-15 08:33N 35°49' E 014°33'0 0.0
2014-Sep-15 07:33N 35°49' E 014°33'3 3.4
2014-Sep-15 06:33N 35°46' E 014°32'3516.8
2014-Sep-15 04:29N 36°00' E 013°53'1819.8
2014-Sep-15 03:33N 36°10' E 013°34'2020.2
2014-Sep-15 02:33N 36°21' E 013°13'2020.3
2014-Sep-15 01:33N 36°32' E 012°51'2020.3
2014-Sep-15 00:33N 36°43' E 012°30'2420.2
2014-Sep-14 23:22N 36°55' E 012°04'33019.6
2014-Sep-14 06:32N 37°19' E 005°12'10720.5
2014-Sep-14 01:19N 37°08' E 002°58'7720.5
2014-Sep-13 21:33N 36°50' E 001°24'2020.6
2014-Sep-13 20:34N 36°45' E 000°59'4220.5
2014-Sep-13 18:31N 36°35' E 000°09'2020.9
2014-Sep-13 17:34N 36°31' W 000°16'2120.7
2014-Sep-13 16:33N 36°25' W 000°40'4220.5
2014-Sep-13 14:29N 36°16' W 001°32'2821.0
2014-Sep-13 13:10N 36°10' W 002°05'16321.4
2014-Sep-13 05:33N 35°58' W 005°26'  
Track history (hours):
 
Tides and Currents Weather Stations Pressure Air Temp Water Temp Dewpoint Dewpoint Depression Visibility Wind Speed Wind Dir Waves Ship Positions

Camellia

Last reported at 2014-Sep-19 11:31 UTC. Time now 2014-Sep-19 15:52 UTC.
Position N 40°45' E 029°28'.

Length 222 m; draft 9.8 m.

Type: Ship (hazmat cat C). MMSI: 477791900.

Date/timePositionNaut miles runAvg speedWind from/ knotsBaromVisibWave heightAir tempDewpointWater temp
2014-Sep-19 11:31N 40°45' E 029°28'1010.5
2014-Sep-19 10:34N 40°44' E 029°15'2 1.9
2014-Sep-19 09:30N 40°45' E 029°13'0 0.1
2014-Sep-19 08:30N 40°45' E 029°13'0 0.3
2014-Sep-19 07:24N 40°45' E 029°12'0 0.4
2014-Sep-19 06:30N 40°45' E 029°12'1 1.3
2014-Sep-19 05:33N 40°46' E 029°12'1111.4
2014-Sep-19 04:33N 40°43' E 028°57'1716.6
2014-Sep-19 03:33N 40°29' E 028°45'14 0.5
2014-Sep-18 01:24N 40°28' E 029°04'0 0.2
2014-Sep-18 00:04N 40°28' E 029°04'2412.5
2014-Sep-17 22:08N 40°41' E 028°37'29416.7
2014-Sep-17 04:33N 37°10' E 024°13'2020.3
2014-Sep-17 03:34N 36°51' E 024°04'2120.6
2014-Sep-17 02:33N 36°36' E 023°47'45019.3
2014-Sep-16 03:18N 35°49' E 014°33'0 0.0
2014-Sep-16 02:29N 35°49' E 014°33'0 0.0
2014-Sep-16 00:22N 35°49' E 014°33'0 0.0
2014-Sep-15 21:32N 35°49' E 014°33'0 0.0
2014-Sep-15 20:12N 35°49' E 014°33'0 0.0
2014-Sep-15 19:32N 35°49' E 014°33'0 0.0
2014-Sep-15 18:05N 35°49' E 014°33'0 0.0
2014-Sep-15 17:06N 35°49' E 014°33'0 0.0
2014-Sep-15 16:33N 35°49' E 014°33'0 0.0
2014-Sep-15 15:33N 35°49' E 014°33'0 0.0
2014-Sep-15 14:33N 35°49' E 014°33'0 0.0
2014-Sep-15 13:33N 35°49' E 014°33'0 0.0
2014-Sep-15 12:33N 35°49' E 014°33'0 0.0
2014-Sep-15 11:33N 35°49' E 014°33'0 0.0
2014-Sep-15 10:33N 35°49' E 014°33'0 0.0
2014-Sep-15 09:33N 35°49' E 014°33'0 0.0
2014-Sep-15 08:33N 35°49' E 014°33'0 0.0
2014-Sep-15 07:33N 35°49' E 014°33'3 3.4
2014-Sep-15 06:33N 35°46' E 014°32'3516.8
2014-Sep-15 04:29N 36°00' E 013°53'1819.8
2014-Sep-15 03:33N 36°10' E 013°34'2020.2
2014-Sep-15 02:33N 36°21' E 013°13'2020.3
2014-Sep-15 01:33N 36°32' E 012°51'2020.3
2014-Sep-15 00:33N 36°43' E 012°30'2420.2
2014-Sep-14 23:22N 36°55' E 012°04'33019.6
2014-Sep-14 06:32N 37°19' E 005°12'10720.5
2014-Sep-14 01:19N 37°08' E 002°58'7720.5
2014-Sep-13 21:33N 36°50' E 001°24'2020.6
2014-Sep-13 20:34N 36°45' E 000°59'4220.5
2014-Sep-13 18:31N 36°35' E 000°09'2020.9
2014-Sep-13 17:34N 36°31' W 000°16'2120.7
2014-Sep-13 16:33N 36°25' W 000°40'4220.5
2014-Sep-13 14:29N 36°16' W 001°32'2821.0
2014-Sep-13 13:10N 36°10' W 002°05'16321.4
2014-Sep-13 05:33N 35°58' W 005°26'  

Dump ship's entire track history